Time;durP1;ratioP1;P1;durP2;ratioP2;P2;SDS_P1;SDS_P2;PMS_P1;PMS_P2;Temp;Humidity;BMP_temperature;BMP_pressure;BME280_temperature;BME280_humidity;BME280_pressure;Samples;Min_cycle;Max_cycle;Signal;HPM_P1;HPM_P2
2021/12/27 00:01:41;;;;;;;62.05;31.88;;;;;;;1.39;100.00;100004.75;5054164;28;20041;-50
2021/12/27 00:04:07;;;;;;;61.85;31.95;;;;;;;1.28;100.00;100002.25;5036106;28;20037;-49
2021/12/27 00:06:33;;;;;;;55.30;31.13;;;;;;;1.76;100.00;100072.72;5036251;28;20124;-51
2021/12/27 00:08:58;;;;;;;62.92;31.60;;;;;;;1.37;100.00;100009.94;5053844;28;20116;-50
2021/12/27 00:11:23;;;;;;;61.20;31.42;;;;;;;1.39;100.00;100008.22;5053630;28;20037;-47
2021/12/27 00:13:49;;;;;;;54.30;29.75;;;;;;;1.58;100.00;100032.22;5073386;28;20038;-49
2021/12/27 00:16:14;;;;;;;65.10;32.10;;;;;;;1.55;100.00;100014.97;5046063;28;20037;-49
2021/12/27 00:18:40;;;;;;;61.30;31.48;;;;;;;1.51;100.00;100013.28;5073654;28;20544;-50
2021/12/27 00:21:05;;;;;;;58.33;31.38;;;;;;;1.77;100.00;100049.38;5072963;28;20056;-50
2021/12/27 00:23:32;;;;;;;60.38;32.20;;;;;;;1.83;100.00;100046.72;5055279;28;20112;-48
2021/12/27 00:25:59;;;;;;;62.22;32.17;;;;;;;1.87;100.00;100044.94;5073162;28;20051;-49
2021/12/27 00:28:24;;;;;;;65.10;34.17;;;;;;;1.85;100.00;100041.50;5055667;28;20029;-47
2021/12/27 00:30:49;;;;;;;65.70;31.17;;;;;;;1.87;100.00;100042.34;5072957;28;20094;-52
2021/12/27 00:33:15;;;;;;;65.30;33.42;;;;;;;1.85;100.00;100039.75;5035103;28;20116;-49
2021/12/27 00:35:41;;;;;;;70.85;34.53;;;;;;;1.83;100.00;100030.28;5059346;28;20040;-51
2021/12/27 00:38:07;;;;;;;74.38;34.03;;;;;;;1.87;100.00;100026.78;5073185;28;20123;-51
2021/12/27 00:40:32;;;;;;;65.22;32.00;;;;;;;1.90;100.00;100032.78;5073043;28;20066;-52
2021/12/27 00:42:58;;;;;;;74.38;34.20;;;;;;;1.89;100.00;100027.63;5072650;28;20120;-51
2021/12/27 00:45:23;;;;;;;63.03;32.20;;;;;;;1.76;100.00;100010.44;5071216;28;20153;-50
2021/12/27 00:47:49;;;;;;;74.03;33.45;;;;;;;1.92;100.00;100027.59;5054856;28;20037;-49
2021/12/27 00:50:14;;;;;;;65.07;33.83;;;;;;;1.57;100.00;99961.38;5071910;28;20032;-50
2021/12/27 00:52:40;;;;;;;78.55;34.80;;;;;;;1.84;100.00;100012.09;5073311;28;20037;-48
2021/12/27 00:55:11;;;;;;;66.13;33.05;;;;;;;1.31;100.00;99914.09;5073213;28;20392;-51
2021/12/27 00:57:37;;;;;;;57.45;32.75;;;;;;;1.62;100.00;99964.75;5073282;28;20128;-49
2021/12/27 01:00:08;;;;;;;67.32;32.63;;;;;;;1.84;100.00;99991.31;5073132;28;20082;-49
2021/12/27 01:02:33;;;;;;;;;;;;;;;1.92;100.00;100002.50;5073216;28;20093;-49
2021/12/27 01:04:58;;;;;;;73.70;34.47;;;;;;;1.69;100.00;99961.22;5072954;28;20019;-51
2021/12/27 01:07:24;;;;;;;81.20;34.25;;;;;;;1.86;100.00;99987.00;5072925;28;20028;-53
2021/12/27 01:10:22;;;;;;;74.22;34.30;;;;;;;1.95;100.00;99999.00;5072922;28;20039;-50
2021/12/27 01:13:03;;;;;;;78.82;35.70;;;;;;;1.96;100.00;99990.31;5072742;28;20069;-47
2021/12/27 01:18:04;;;;;;;79.90;35.83;;;;;;;1.93;100.00;99995.56;5056410;28;20111;-49
2021/12/27 01:20:29;;;;;;;83.25;36.55;;;;;;;1.94;100.00;99994.69;5072802;28;20109;-51
2021/12/27 01:22:55;;;;;;;76.45;35.50;;;;;;;1.93;100.00;99998.16;5054717;28;20032;-49
2021/12/27 01:25:21;;;;;;;80.43;38.03;;;;;;;1.89;100.00;99978.31;5054377;28;20400;-48
2021/12/27 01:27:47;;;;;;;90.38;36.30;;;;;;;1.96;100.00;99993.78;5021689;28;20487;-49
2021/12/27 01:30:16;;;;;;;108.18;37.88;;;;;;;1.86;100.00;99974.03;5072672;28;20031;-49
2021/12/27 01:32:47;;;;;;;103.13;39.42;;;;;;;2.00;100.00;99992.88;5054869;28;20060;-49
2021/12/27 01:35:13;;;;;;;90.13;36.75;;;;;;;1.71;100.00;99937.88;5072443;28;20468;-47
2021/12/27 01:37:39;;;;;;;84.22;35.72;;;;;;;1.93;100.00;99973.06;5072657;28;20089;-50
2021/12/27 01:40:09;;;;;;;93.68;39.10;;;;;;;2.03;100.00;99981.63;5072345;28;20078;-48
2021/12/27 01:42:34;;;;;;;93.90;39.42;;;;;;;1.79;100.00;99937.75;5072241;28;20032;-48
2021/12/27 01:45:00;;;;;;;81.85;36.65;;;;;;;1.96;100.00;99965.25;5072016;28;20113;-47
2021/12/27 01:47:27;;;;;;;94.30;38.50;;;;;;;1.99;100.00;99962.59;5072609;28;20040;-48
2021/12/27 01:49:53;;;;;;;89.55;37.95;;;;;;;1.69;100.00;99905.91;5072435;28;20204;-49
2021/12/27 01:52:18;;;;;;;83.30;37.15;;;;;;;2.08;100.00;99966.84;5054450;28;20036;-49
2021/12/27 01:54:44;;;;;;;84.78;36.17;;;;;;;1.67;100.00;99895.53;5054405;28;20036;-50
2021/12/27 01:57:11;;;;;;;85.35;37.17;;;;;;;2.10;100.00;99970.28;5071903;28;20107;-48
2021/12/27 01:59:37;;;;;;;82.60;36.60;;;;;;;2.16;100.00;99980.59;5072325;28;20090;-47
2021/12/27 02:02:02;;;;;;;79.57;36.13;;;;;;;2.15;100.00;99976.28;5072260;28;20028;-50
2021/12/27 02:04:28;;;;;;;91.05;37.15;;;;;;;1.78;100.00;99915.31;5072241;28;20132;-48
2021/12/27 02:06:53;;;;;;;81.22;36.03;;;;;;;1.84;100.00;99926.44;5054063;28;20051;-50
2021/12/27 02:09:24;;;;;;;80.63;35.70;;;;;;;2.15;100.00;99978.88;5072104;28;20029;-52
2021/12/27 02:11:50;;;;;;;64.10;33.42;;;;;;;2.18;100.00;99963.25;5072429;28;20032;-49
2021/12/27 02:14:17;;;;;;;63.50;33.20;;;;;;;1.89;100.00;99911.72;5072198;28;20120;-51
2021/12/27 02:16:43;;;;;;;69.50;33.50;;;;;;;2.23;100.00;99984.81;5072056;28;20147;-53
2021/12/27 02:19:08;;;;;;;62.33;31.77;;;;;;;2.22;100.00;99986.56;5072208;28;20120;-51
2021/12/27 02:21:33;;;;;;;58.63;31.83;;;;;;;1.91;100.00;99930.72;5071980;28;20033;-48
2021/12/27 02:24:00;;;;;;;58.70;32.13;;;;;;;1.94;100.00;99935.00;5054375;28;20081;-48
2021/12/27 02:26:25;;;;;;;63.75;33.15;;;;;;;2.21;100.00;99996.97;5072025;28;20029;-48
2021/12/27 02:28:51;;;;;;;59.42;31.50;;;;;;;1.87;100.00;99923.00;5054185;28;20044;-49
2021/12/27 02:31:17;;;;;;;56.95;30.92;;;;;;;1.89;100.00;99923.81;5071935;28;20029;-49
2021/12/27 02:33:43;;;;;;;59.10;31.80;;;;;;;2.17;100.00;99966.72;5071867;28;20063;-49
2021/12/27 02:36:11;;;;;;;65.82;32.38;;;;;;;2.22;100.00;99973.56;5071601;28;20036;-49
2021/12/27 02:38:39;;;;;;;56.20;30.90;;;;;;;2.18;100.00;99969.31;5072037;28;20086;-49
2021/12/27 02:41:05;;;;;;;66.65;32.10;;;;;;;2.01;100.00;99937.53;5071947;28;20074;-45
2021/12/27 02:43:31;;;;;;;59.00;31.02;;;;;;;2.28;100.00;99967.44;5071833;28;20063;-45
2021/12/27 02:46:04;;;;;;;66.22;32.38;;;;;;;1.91;100.00;99903.88;5071584;28;20040;-47
2021/12/27 02:48:33;;;;;;;59.60;30.85;;;;;;;2.26;100.00;99977.88;5053922;28;20059;-52
2021/12/27 02:50:59;;;;;;;63.10;31.95;;;;;;;2.26;100.00;99967.47;5071575;28;20503;-48
2021/12/27 02:53:25;;;;;;;66.63;32.17;;;;;;;2.22;100.00;99947.63;5054091;28;20032;-52
2021/12/27 02:55:53;;;;;;;69.22;33.70;;;;;;;1.94;100.00;99894.34;5056745;28;20124;-51
2021/12/27 02:58:21;;;;;;;78.18;33.88;;;;;;;2.37;100.00;99956.06;5075091;28;20127;-51
2021/12/27 03:00:52;;;;;;;87.63;34.70;;;;;;;2.05;100.00;99905.44;5075160;28;20024;-48
2021/12/27 03:03:18;;;;;;;80.28;36.00;;;;;;;2.01;100.00;99898.59;5074998;28;20032;-51
2021/12/27 03:05:44;;;;;;;73.57;32.22;;;;;;;2.40;100.00;99949.09;5075395;28;20094;-49
2021/12/27 03:08:14;;;;;;;87.93;35.47;;;;;;;2.42;100.00;99941.31;5075191;28;20075;-47
2021/12/27 03:10:41;;;;;;;81.60;34.20;;;;;;;2.17;100.00;99901.81;5057836;28;20369;-48
2021/12/27 03:13:07;;;;;;;75.43;33.05;;;;;;;2.07;100.00;99871.69;5075080;28;20427;-50
2021/12/27 03:15:32;;;;;;;84.00;35.13;;;;;;;2.34;100.00;99912.84;5057157;28;20029;-49
2021/12/27 03:17:58;;;;;;;85.25;34.53;;;;;;;2.44;100.00;99934.34;5056991;28;20361;-53
2021/12/27 03:20:26;;;;;;;97.32;35.33;;;;;;;2.45;100.00;99931.72;5075161;28;20032;-48
2021/12/27 03:22:51;;;;;;;114.25;37.90;;;;;;;2.12;100.00;99865.56;5075134;28;20028;-50
2021/12/27 03:25:24;;;;;;;88.60;34.55;;;;;;;2.10;100.00;99859.50;5057219;28;20029;-50
2021/12/27 03:27:49;;;;;;;81.75;34.38;;;;;;;1.81;100.00;99801.94;5074599;28;20040;-50
2021/12/27 03:30:21;;;;;;;135.45;40.47;;;;;;;2.41;100.00;99914.47;5074577;28;20024;-54
2021/12/27 03:32:46;;;;;;;135.40;41.78;;;;;;;2.52;100.00;99920.38;5075095;28;20033;-49
2021/12/27 03:35:15;;;;;;;95.72;37.58;;;;;;;2.12;100.00;99851.72;5057071;28;20037;-47
2021/12/27 03:37:47;;;;;;;105.47;40.22;;;;;;;1.97;100.00;99815.56;5074750;28;20063;-47
2021/12/27 03:40:15;;;;;;;118.13;41.13;;;;;;;1.83;100.00;99787.25;5074663;28;20098;-50
2021/12/27 03:42:40;;;;;;;147.68;43.25;;;;;;;2.25;100.00;99859.28;5074600;28;20048;-53
2021/12/27 03:45:07;;;;;;;146.52;42.58;;;;;;;2.26;100.00;99853.22;5074321;28;20048;-47
2021/12/27 03:47:32;;;;;;;118.95;40.78;;;;;;;2.55;100.00;99903.88;5074201;28;20032;-52
2021/12/27 03:49:58;;;;;;;143.02;43.78;;;;;;;2.48;100.00;99905.69;5074682;28;20054;-51
2021/12/27 03:52:23;;;;;;;103.32;40.45;;;;;;;2.52;100.00;99902.19;5074537;28;20028;-48
2021/12/27 03:54:48;;;;;;;115.53;41.92;;;;;;;2.58;100.00;99907.28;5074315;28;20395;-48
2021/12/27 03:57:17;;;;;;;149.00;44.50;;;;;;;2.22;100.00;99850.69;5073911;28;20045;-48
2021/12/27 04:02:09;;;;;;;160.38;48.15;;;;;;;2.42;100.00;99872.06;5056387;28;20506;-52
2021/12/27 04:04:34;;;;;;;132.80;44.30;;;;;;;2.59;100.00;99898.63;5074097;28;20024;-49
2021/12/27 04:07:00;;;;;;;142.88;43.78;;;;;;;2.54;100.00;99881.41;5073184;28;20444;-49
2021/12/27 04:09:26;;;;;;;139.00;44.42;;;;;;;2.36;100.00;99845.31;5056165;28;20090;-51
2021/12/27 04:11:52;;;;;;;128.05;43.42;;;;;;;2.54;100.00;99879.63;5056091;28;20040;-54
2021/12/27 04:14:17;;;;;;;127.95;43.60;;;;;;;2.56;100.00;99885.69;5055954;28;20403;-49
2021/12/27 04:16:42;;;;;;;145.30;45.28;;;;;;;2.65;100.00;99893.34;5073777;28;20029;-50
2021/12/27 04:19:08;;;;;;;163.18;47.08;;;;;;;2.67;100.00;99898.50;5055983;28;20036;-51
2021/12/27 04:21:33;;;;;;;160.70;47.08;;;;;;;2.28;100.00;99812.50;5073884;28;20033;-51
2021/12/27 04:23:58;;;;;;;161.00;48.75;;;;;;;2.28;100.00;99820.31;5055568;28;20545;-50
2021/12/27 04:26:24;;;;;;;152.48;46.00;;;;;;;2.41;100.00;99833.97;5055448;28;20029;-53
2021/12/27 04:28:50;;;;;;;177.93;47.83;;;;;;;2.30;100.00;99812.50;5055574;28;20037;-51
2021/12/27 04:31:16;;;;;;;163.20;48.33;;;;;;;2.32;100.00;99810.72;5055645;28;20035;-51
2021/12/27 04:33:41;;;;;;;162.75;46.40;;;;;;;2.67;100.00;99863.00;5073232;28;20037;-46
2021/12/27 04:36:07;;;;;;;139.88;44.97;;;;;;;2.43;100.00;99826.13;5073278;28;20036;-49
2021/12/27 04:38:33;;;;;;;206.73;51.38;;;;;;;2.74;100.00;99864.59;5073319;28;20036;-54
2021/12/27 04:40:59;;;;;;;193.25;51.05;;;;;;;2.77;100.00;99868.91;5055615;28;20039;-51
2021/12/27 04:43:25;;;;;;;218.68;51.72;;;;;;;2.38;100.00;99791.59;5072909;28;20024;-47
2021/12/27 04:45:53;;;;;;;148.27;46.05;;;;;;;2.81;100.00;99863.63;5073280;28;20396;-50
2021/12/27 04:48:21;;;;;;;176.50;49.60;;;;;;;2.79;100.00;99846.34;5073223;28;20123;-47
2021/12/27 04:50:46;;;;;;;200.40;49.85;;;;;;;2.83;100.00;99851.44;5055478;28;20040;-49
2021/12/27 04:53:11;;;;;;;181.85;49.70;;;;;;;2.87;100.00;99848.78;5072981;28;20033;-52
2021/12/27 04:55:37;;;;;;;211.13;51.65;;;;;;;2.88;100.00;99846.19;5054991;28;20117;-49
2021/12/27 04:58:10;;;;;;;186.45;48.15;;;;;;;2.90;100.00;99848.75;5072866;28;20127;-49
2021/12/27 05:00:37;;;;;;;322.63;60.72;;;;;;;2.85;100.00;99848.84;5072527;28;20039;-47
2021/12/27 05:03:02;;;;;;;257.63;56.35;;;;;;;2.94;100.00;99866.03;5072929;28;20480;-47
2021/12/27 05:05:28;;;;;;;145.55;45.67;;;;;;;2.85;100.00;99838.44;5072682;28;20043;-49
2021/12/27 05:07:54;;;;;;;251.35;56.33;;;;;;;2.92;100.00;99844.41;5054598;28;20048;-51
2021/12/27 05:10:19;;;;;;;268.10;55.55;;;;;;;2.61;100.00;99784.28;5072155;28;20086;-51
2021/12/27 05:12:45;;;;;;;214.63;49.58;;;;;;;2.94;100.00;99837.41;5072504;28;20534;-50
2021/12/27 05:15:11;;;;;;;188.82;47.47;;;;;;;2.93;100.00;99817.50;5072471;28;20483;-47
2021/12/27 05:17:36;;;;;;;177.30;47.63;;;;;;;3.06;100.00;99834.63;5072594;28;20040;-52
2021/12/27 05:20:05;;;;;;;260.83;54.28;;;;;;;2.90;100.00;99807.16;5072586;28;20036;-49
2021/12/27 05:22:31;;;;;;;260.73;57.33;;;;;;;2.71;100.00;99767.66;5072101;28;20082;-49
2021/12/27 05:24:57;;;;;;;246.57;53.38;;;;;;;1.91;100.00;99631.41;5072220;28;20108;-52
2021/12/27 05:27:22;;;;;;;323.35;59.65;;;;;;;3.08;100.00;99825.91;5054579;28;20131;-51
2021/12/27 05:29:48;;;;;;;262.83;56.88;;;;;;;3.17;100.00;99828.34;5072411;28;20043;-50
2021/12/27 05:32:13;;;;;;;179.15;48.78;;;;;;;3.19;100.00;99826.56;5072308;28;20031;-48
2021/12/27 05:34:38;;;;;;;211.00;52.60;;;;;;;3.20;100.00;99830.00;5072458;28;20384;-50
2021/12/27 05:37:04;;;;;;;315.92;59.97;;;;;;;3.21;100.00;99823.94;5054299;28;20028;-53
2021/12/27 05:39:31;;;;;;;187.60;49.10;;;;;;;3.19;100.00;99805.75;5054244;28;20050;-51
2021/12/27 05:41:56;;;;;;;324.50;61.20;;;;;;;2.90;100.00;99748.25;5038001;28;20047;-51
2021/12/27 05:44:22;;;;;;;252.73;56.30;;;;;;;3.27;100.00;99809.06;5072573;28;20036;-52
2021/12/27 05:46:47;;;;;;;166.35;48.13;;;;;;;2.94;100.00;99777.63;5072240;28;20040;-54
2021/12/27 05:49:14;;;;;;;300.00;59.65;;;;;;;2.98;100.00;99761.13;5072670;28;20028;-50
2021/12/27 05:51:41;;;;;;;262.48;56.28;;;;;;;3.32;100.00;99814.19;5054025;28;20036;-52
2021/12/27 05:54:07;;;;;;;238.43;55.38;;;;;;;3.33;100.00;99831.47;5072223;28;20131;-54
2021/12/27 05:56:32;;;;;;;288.73;58.03;;;;;;;3.24;100.00;99813.47;5054284;28;20072;-54
2021/12/27 05:58:57;;;;;;;195.60;50.90;;;;;;;3.31;100.00;99828.06;5053881;28;20059;-46
2021/12/27 06:01:23;;;;;;;198.90;52.55;;;;;;;3.31;100.00;99821.13;5053960;28;20029;-54
2021/12/27 06:03:48;;;;;;;208.73;53.45;;;;;;;3.23;100.00;99814.34;5072052;28;20373;-52
2021/12/27 06:06:15;;;;;;;243.23;54.63;;;;;;;3.24;100.00;99811.72;5052717;28;20044;-51
2021/12/27 06:08:40;;;;;;;243.32;55.67;;;;;;;3.25;100.00;99825.56;5071217;28;20425;-50
2021/12/27 06:11:06;;;;;;;232.07;54.22;;;;;;;3.19;100.00;99823.94;5063983;28;20112;-51
2021/12/27 06:13:31;;;;;;;271.63;58.05;;;;;;;2.95;100.00;99775.00;5052323;28;20080;-50
2021/12/27 06:15:56;;;;;;;212.65;52.78;;;;;;;3.32;100.00;99828.06;5050643;28;20072;-51
2021/12/27 06:18:24;;;;;;;206.77;54.65;;;;;;;3.31;100.00;99815.91;5034266;28;20037;-51
2021/12/27 06:20:49;;;;;;;276.15;58.03;;;;;;;3.35;100.00;99824.53;5051641;28;20559;-46
2021/12/27 06:23:14;;;;;;;252.02;58.45;;;;;;;2.99;100.00;99755.00;5051572;28;20065;-53
2021/12/27 06:25:40;;;;;;;310.05;63.20;;;;;;;3.37;100.00;99825.34;5051743;28;20041;-49
2021/12/27 06:28:05;;;;;;;231.45;57.10;;;;;;;2.98;100.00;99754.16;5051513;28;20495;-49
2021/12/27 06:30:30;;;;;;;297.38;60.85;;;;;;;3.12;100.00;99777.31;5054365;28;20064;-52
2021/12/27 06:32:56;;;;;;;265.02;58.53;;;;;;;3.37;100.00;99835.75;5055524;28;20033;-53
2021/12/27 06:35:21;;;;;;;324.35;63.70;;;;;;;3.31;100.00;99809.84;5055694;28;20045;-53
2021/12/27 06:37:48;;;;;;;238.98;57.55;;;;;;;3.40;100.00;99825.28;5037683;28;20094;-49
2021/12/27 06:40:14;;;;;;;307.00;63.10;;;;;;;3.41;100.00;99817.44;5037839;28;20475;-50
2021/12/27 06:42:40;;;;;;;407.98;72.78;;;;;;;3.20;100.00;99793.59;5055493;28;20075;-51
2021/12/27 06:45:06;;;;;;;252.90;57.72;;;;;;;3.41;100.00;99816.59;5037735;28;20471;-52
2021/12/27 06:47:31;;;;;;;267.67;60.10;;;;;;;3.17;100.00;99773.72;5055183;28;20116;-46
2021/12/27 06:49:57;;;;;;;268.58;58.97;;;;;;;3.08;100.00;99754.84;5055550;28;20033;-49
2021/12/27 06:52:23;;;;;;;348.35;66.85;;;;;;;3.11;100.00;99771.25;5055175;28;20037;-55
2021/12/27 06:54:48;;;;;;;284.52;62.83;;;;;;;3.51;100.00;99832.88;5037771;28;20132;-55
2021/12/27 06:57:16;;;;;;;364.35;68.65;;;;;;;3.18;100.00;99778.03;5037035;28;20519;-50
2021/12/27 06:59:41;;;;;;;379.13;69.35;;;;;;;3.53;100.00;99834.59;5055213;28;20048;-53
2021/12/27 07:02:06;;;;;;;320.88;66.28;;;;;;;3.40;100.00;99802.75;5037189;28;20029;-49
2021/12/27 07:04:32;;;;;;;307.45;65.55;;;;;;;3.57;100.00;99827.53;5037211;28;20373;-50
2021/12/27 07:06:57;;;;;;;301.77;65.22;;;;;;;3.51;100.00;99814.66;5054962;28;20037;-52
2021/12/27 07:09:23;;;;;;;310.25;64.28;;;;;;;3.62;100.00;99821.34;5055397;28;20439;-49
2021/12/27 07:11:49;;;;;;;349.23;69.15;;;;;;;3.61;100.00;99811.84;5054108;28;20116;-49
2021/12/27 07:14:14;;;;;;;275.10;62.58;;;;;;;3.67;100.00;99819.53;5055007;28;20051;-49
2021/12/27 07:16:39;;;;;;;287.88;63.28;;;;;;;3.26;100.00;99736.28;5055038;28;20506;-48
2021/12/27 07:19:05;;;;;;;354.50;67.28;;;;;;;3.64;100.00;99785.78;5055077;28;20464;-54
2021/12/27 07:21:30;;;;;;;336.33;68.38;;;;;;;3.75;100.00;99811.56;5053619;28;20033;-51
2021/12/27 07:23:55;;;;;;;313.67;65.63;;;;;;;3.71;100.00;99807.28;5054770;28;20554;-51
2021/12/27 07:26:21;;;;;;;325.38;67.55;;;;;;;3.75;100.00;99809.81;5036813;28;20476;-49
2021/12/27 07:28:46;;;;;;;401.33;70.75;;;;;;;3.78;100.00;99804.56;5037064;28;20036;-52
2021/12/27 07:31:11;;;;;;;365.63;68.70;;;;;;;3.80;100.00;99801.91;5054921;28;20428;-48
2021/12/27 07:33:37;;;;;;;501.13;81.97;;;;;;;3.62;100.00;99763.28;5054627;28;20068;-48
2021/12/27 07:36:05;;;;;;;389.45;73.25;;;;;;;3.46;100.00;99736.72;5036860;28;20090;-49
2021/12/27 07:38:31;;;;;;;435.15;74.38;;;;;;;3.47;100.00;99734.97;5054542;28;20068;-49
2021/12/27 07:40:57;;;;;;;410.35;74.90;;;;;;;3.87;100.00;99806.97;5019437;28;20476;-53
2021/12/27 07:43:22;;;;;;;354.98;68.82;;;;;;;3.84;100.00;99796.63;5054282;28;20120;-49
2021/12/27 07:45:47;;;;;;;373.10;70.85;;;;;;;3.84;100.00;99793.16;5054627;28;20048;-50
2021/12/27 07:48:12;;;;;;;348.08;67.97;;;;;;;3.77;100.00;99783.75;5036466;28;20045;-52
2021/12/27 07:50:38;;;;;;;460.50;77.97;;;;;;;3.95;100.00;99807.63;5054369;28;20075;-49
2021/12/27 07:53:04;;;;;;;396.00;70.97;;;;;;;3.91;100.00;99792.97;5054489;28;20025;-53
2021/12/27 07:55:31;;;;;;;361.27;69.30;;;;;;;3.98;100.00;99810.19;5053140;28;20047;-49
2021/12/27 07:57:57;;;;;;;366.42;68.07;;;;;;;3.63;100.00;99736.34;5036270;28;20056;-50
2021/12/27 08:00:23;;;;;;;323.60;64.88;;;;;;;3.94;100.00;99785.09;5054130;28;20059;-53
2021/12/27 08:02:49;;;;;;;397.80;70.32;;;;;;;3.73;100.00;99736.13;5036167;28;20047;-51
2021/12/27 08:05:14;;;;;;;545.67;85.63;;;;;;;4.08;100.00;99803.03;5054018;28;20029;-50
2021/12/27 08:07:42;;;;;;;434.83;72.57;;;;;;;4.10;100.00;99805.59;5052808;28;20033;-51
2021/12/27 08:10:09;;;;;;;280.20;60.47;;;;;;;4.09;100.00;99799.50;5036868;28;20041;-50
2021/12/27 08:12:35;;;;;;;334.17;64.93;;;;;;;3.76;100.00;99730.00;5054179;28;20025;-49
2021/12/27 08:15:00;;;;;;;324.90;63.08;;;;;;;4.12;100.00;99802.06;5036090;28;20033;-50
2021/12/27 08:17:26;;;;;;;398.25;69.93;;;;;;;4.13;100.00;99790.75;5054035;28;20029;-48
2021/12/27 08:19:51;;;;;;;320.38;64.10;;;;;;;4.17;100.00;99779.38;5053690;28;20095;-47
2021/12/27 08:22:17;;;;;;;345.10;66.32;;;;;;;4.17;100.00;99781.13;5052842;28;20487;-49
2021/12/27 08:24:42;;;;;;;365.13;64.10;;;;;;;4.18;100.00;99786.28;5035920;28;20119;-48
2021/12/27 08:27:08;;;;;;;324.73;61.40;;;;;;;4.22;100.00;99779.25;5053788;28;20047;-50
2021/12/27 08:29:33;;;;;;;461.65;71.63;;;;;;;4.26;100.00;99797.38;5053664;28;20036;-51
2021/12/27 08:31:59;;;;;;;526.88;77.13;;;;;;;4.30;100.00;99777.31;5053569;28;20377;-54
2021/12/27 08:34:25;;;;;;;373.95;65.05;;;;;;;3.96;100.00;99714.78;5035768;28;20112;-48
2021/12/27 08:36:51;;;;;;;475.38;72.90;;;;;;;4.36;100.00;99767.63;5019468;28;20041;-52
2021/12/27 08:39:16;;;;;;;410.83;67.65;;;;;;;4.14;100.00;99726.50;5035796;28;20033;-49
2021/12/27 08:41:42;;;;;;;415.42;68.13;;;;;;;4.39;100.00;99756.25;5035599;28;20033;-49
2021/12/27 08:44:07;;;;;;;329.48;60.83;;;;;;;4.42;100.00;99750.97;5053540;28;20043;-49
2021/12/27 08:46:33;;;;;;;234.70;53.03;;;;;;;4.20;100.00;99708.13;5053213;28;20036;-46
2021/12/27 08:48:59;;;;;;;329.83;61.95;;;;;;;4.63;100.00;99760.00;5053255;28;20112;-50
2021/12/27 08:51:25;;;;;;;309.80;58.72;;;;;;;4.60;100.00;99742.72;5035409;28;20453;-47
2021/12/27 08:53:51;;;;;;;324.90;61.40;;;;;;;4.42;100.00;99701.47;5052826;28;20048;-47
2021/12/27 08:56:18;;;;;;;363.95;63.67;;;;;;;4.48;100.00;99704.78;5035728;28;20037;-48
2021/12/27 08:58:43;;;;;;;351.90;65.20;;;;;;;4.82;100.00;99745.59;5052990;28;20079;-48
2021/12/27 09:01:08;;;;;;;326.08;61.00;;;;;;;4.62;100.00;99699.22;5052984;28;20029;-50
2021/12/27 09:03:35;;;;;;;377.15;67.22;;;;;;;4.96;100.00;99752.16;5053564;28;20384;-49
2021/12/27 09:06:00;;;;;;;313.17;62.40;;;;;;;4.99;100.00;99743.41;5052880;28;20053;-53
2021/12/27 09:08:26;;;;;;;324.33;63.13;;;;;;;4.67;100.00;99676.47;5051843;28;20372;-47
2021/12/27 09:10:51;;;;;;;456.88;73.22;;;;;;;4.72;100.00;99687.66;5053061;28;20048;-50
2021/12/27 09:13:16;;;;;;;295.08;61.05;;;;;;;5.13;100.00;99764.75;5052663;28;20568;-49
2021/12/27 09:15:42;;;;;;;341.95;63.80;;;;;;;5.03;100.00;99745.88;5051434;28;20029;-49
2021/12/27 09:18:07;;;;;;;392.45;65.32;;;;;;;5.16;100.00;99769.91;5052711;28;20098;-49
2021/12/27 09:20:32;;;;;;;326.52;61.72;;;;;;;5.20;100.00;99786.28;5052367;28;20029;-50
2021/12/27 09:22:58;;;;;;;313.45;58.95;;;;;;;4.81;100.00;99704.81;5051462;28;20033;-50
2021/12/27 09:25:24;;;;;;;407.17;66.88;;;;;;;5.13;100.00;99763.91;5052779;28;20151;-47
2021/12/27 09:27:49;;;;;;;471.45;70.95;;;;;;;5.05;100.00;99759.72;5052600;28;20040;-47
2021/12/27 09:30:15;;;;;;;456.08;69.65;;;;;;;5.15;100.00;99778.59;5034880;28;20045;-46
2021/12/27 09:32:40;;;;;;;328.17;59.08;;;;;;;5.08;100.00;99767.47;5034670;28;20044;-46
2021/12/27 09:35:06;;;;;;;316.08;59.95;;;;;;;5.21;100.00;99788.88;5051141;28;20032;-47
2021/12/27 09:37:31;;;;;;;430.98;68.82;;;;;;;5.18;100.00;99781.13;5034692;28;20414;-48
2021/12/27 09:39:57;;;;;;;363.67;62.25;;;;;;;4.81;100.00;99707.41;5052413;28;20037;-47
2021/12/27 09:42:24;;;;;;;284.63;56.90;;;;;;;5.15;100.00;99783.81;5034613;28;20555;-48
2021/12/27 09:44:52;;;;;;;476.15;71.75;;;;;;;5.18;100.00;99773.31;5034566;28;20149;-47
2021/12/27 09:47:18;;;;;;;317.70;58.92;;;;;;;5.16;100.00;99753.38;5052210;28;20029;-48
2021/12/27 09:49:44;;;;;;;344.20;61.30;;;;;;;5.06;100.00;99726.69;5018053;28;20373;-51
2021/12/27 09:52:10;;;;;;;317.02;61.05;;;;;;;5.23;100.00;99752.28;5052458;28;20087;-49
2021/12/27 09:54:35;;;;;;;306.08;60.58;;;;;;;5.25;100.00;99748.78;5052130;28;20036;-51
2021/12/27 09:57:01;;;;;;;350.45;61.22;;;;;;;5.30;100.00;99746.88;5034442;28;20031;-52
2021/12/27 09:59:27;;;;;;;353.88;61.03;;;;;;;5.39;100.00;99737.94;5052120;28;20041;-53
2021/12/27 10:01:53;;;;;;;413.55;66.93;;;;;;;5.08;100.00;99667.50;5051945;28;20063;-47
2021/12/27 10:04:20;;;;;;;286.98;56.85;;;;;;;5.49;100.00;99731.53;5051091;28;20033;-50
2021/12/27 10:06:45;;;;;;;298.55;56.83;;;;;;;5.53;100.00;99723.59;5034223;28;20033;-51
2021/12/27 10:09:10;;;;;;;306.48;55.78;;;;;;;5.27;100.00;99658.25;5050893;28;20039;-48
2021/12/27 10:11:39;;;;;;;268.25;55.75;;;;;;;5.63;100.00;99698.06;5052152;28;20540;-49
2021/12/27 10:14:14;;;;;;;236.05;52.30;;;;;;;5.74;100.00;99727.31;5050755;28;20029;-52
2021/12/27 10:16:45;;;;;;;272.58;53.15;;;;;;;5.71;100.00;99726.53;5051971;28;20531;-54
2021/12/27 10:19:12;;;;;;;344.55;64.20;;;;;;;5.38;100.00;99669.22;5052099;28;20037;-52
2021/12/27 10:21:41;;;;;;;319.90;67.35;;;;;;;5.67;100.00;99726.63;5052211;28;20033;-51
2021/12/27 10:24:19;;;;;;;310.30;62.08;;;;;;;5.32;100.00;99655.50;5051914;28;20066;-50
2021/12/27 10:26:46;;;;;;;381.83;68.85;;;;;;;5.39;100.00;99670.09;5051884;28;20111;-49
2021/12/27 10:29:15;;;;;;;249.18;59.00;;;;;;;5.66;100.00;99727.53;5033886;28;20060;-50
2021/12/27 10:32:04;;;;;;;262.30;54.00;;;;;;;5.66;100.00;99731.91;5051634;28;20036;-50
2021/12/27 10:34:35;;;;;;;327.95;57.75;;;;;;;5.66;100.00;99721.47;5043253;28;20037;-50
2021/12/27 10:37:12;;;;;;;349.23;57.53;;;;;;;5.66;100.00;99722.31;5049624;28;20388;-50
2021/12/27 10:40:03;;;;;;;301.90;55.08;;;;;;;5.62;100.00;99704.19;5051355;28;20029;-49
2021/12/27 10:42:31;;;;;;;261.27;53.45;;;;;;;5.82;100.00;99714.88;5051898;28;20051;-53
2021/12/27 10:44:58;;;;;;;279.08;55.13;;;;;;;5.84;100.00;99707.81;5051762;28;20027;-49
2021/12/27 10:47:44;;;;;;;314.85;59.25;;;;;;;5.82;100.00;99703.56;5050414;28;20495;-53
2021/12/27 10:50:27;;;;;;;302.10;56.88;;;;;;;5.92;100.00;99705.91;5051785;28;20060;-48
2021/12/27 10:52:59;;;;;;;210.00;50.58;;;;;;;5.89;100.00;99705.97;5051951;28;20052;-50
2021/12/27 10:55:40;;;;;;;342.52;62.67;;;;;;;5.56;100.00;99636.50;5050586;28;20487;-47
2021/12/27 10:58:27;;;;;;;281.15;56.58;;;;;;;5.92;100.00;99703.28;5051689;28;20056;-47
2021/12/27 11:00:57;;;;;;;359.52;62.67;;;;;;;5.84;100.00;99686.94;5051531;28;20391;-50
2021/12/27 11:03:36;;;;;;;356.13;64.63;;;;;;;5.89;100.00;99698.16;5051619;28;20090;-50
2021/12/27 11:06:03;;;;;;;297.23;58.38;;;;;;;5.97;100.00;99692.66;5051657;28;20041;-52
2021/12/27 11:08:30;;;;;;;260.98;55.13;;;;;;;5.99;100.00;99696.09;5051476;28;20047;-52
2021/12/27 11:10:56;;;;;;;230.27;51.38;;;;;;;6.02;100.00;99696.84;5051451;28;20522;-51
2021/12/27 11:13:21;;;;;;;222.18;49.58;;;;;;;6.04;100.00;99684.56;5051634;28;20033;-50
2021/12/27 11:15:47;;;;;;;247.98;53.17;;;;;;;6.09;100.00;99684.44;5034857;28;20423;-49